sensor_id;sensor_type;location;lat;lon;timestamp;pressure;altitude;pressure_sealevel;temperature;humidity
43553;BME280;29153;42.696;23.218;2022-09-01T00:02:16;94312.09;;;14.46;100.00
43553;BME280;29153;42.696;23.218;2022-09-01T00:04:44;94312.09;;;14.46;100.00
43553;BME280;29153;42.696;23.218;2022-09-01T00:07:13;94304.04;;;14.35;100.00
43553;BME280;29153;42.696;23.218;2022-09-01T00:09:41;94304.04;;;14.35;100.00
43553;BME280;29153;42.696;23.218;2022-09-01T00:12:09;94301.47;;;14.43;100.00
43553;BME280;29153;42.696;23.218;2022-09-01T00:14:39;94297.36;;;14.48;99.62
43553;BME280;29153;42.696;23.218;2022-09-01T00:17:09;94305.69;;;14.33;99.65
43553;BME280;29153;42.696;23.218;2022-09-01T00:19:37;94305.69;;;14.33;99.65
43553;BME280;29153;42.696;23.218;2022-09-01T00:22:11;94303.82;;;14.09;100.00
43553;BME280;29153;42.696;23.218;2022-09-01T00:24:35;94303.48;;;13.99;100.00
43553;BME280;29153;42.696;23.218;2022-09-01T00:27:03;94304.22;;;14.16;100.00
43553;BME280;29153;42.696;23.218;2022-09-01T00:29:31;94305.27;;;14.04;100.00
43553;BME280;29153;42.696;23.218;2022-09-01T00:31:58;94302.13;;;14.02;100.00
43553;BME280;29153;42.696;23.218;2022-09-01T00:34:26;94298.92;;;14.02;100.00
43553;BME280;29153;42.696;23.218;2022-09-01T00:36:53;94304.97;;;14.05;100.00
43553;BME280;29153;42.696;23.218;2022-09-01T00:39:21;94302.13;;;14.02;100.00
43553;BME280;29153;42.696;23.218;2022-09-01T00:41:49;94309.23;;;13.93;100.00
43553;BME280;29153;42.696;23.218;2022-09-01T00:44:19;94313.48;;;13.94;100.00
43553;BME280;29153;42.696;23.218;2022-09-01T00:46:52;94309.09;;;13.87;100.00
43553;BME280;29153;42.696;23.218;2022-09-01T00:49:29;94308.43;;;13.81;100.00
43553;BME280;29153;42.696;23.218;2022-09-01T00:52:00;94310.23;;;13.83;100.00
43553;BME280;29153;42.696;23.218;2022-09-01T00:54:30;94308.28;;;13.75;100.00
43553;BME280;29153;42.696;23.218;2022-09-01T00:56:59;94305.27;;;13.79;100.00
43553;BME280;29153;42.696;23.218;2022-09-01T00:59:27;94305.45;;;13.83;100.00
43553;BME280;29153;42.696;23.218;2022-09-01T01:01:56;94315.61;;;13.94;100.00
43553;BME280;29153;42.696;23.218;2022-09-01T01:04:24;94315.64;;;13.92;100.00
43553;BME280;29153;42.696;23.218;2022-09-01T01:06:56;94319.99;;;13.88;100.00
43553;BME280;29153;42.696;23.218;2022-09-01T01:09:29;94320.62;;;13.96;100.00
43553;BME280;29153;42.696;23.218;2022-09-01T01:11:59;94321.49;;;14.05;100.00
43553;BME280;29153;42.696;23.218;2022-09-01T01:14:27;94318.66;;;13.88;100.00
43553;BME280;29153;42.696;23.218;2022-09-01T01:17:00;94318.29;;;13.81;100.00
43553;BME280;29153;42.696;23.218;2022-09-01T01:19:42;94315.87;;;13.82;100.00
43553;BME280;29153;42.696;23.218;2022-09-01T01:22:34;94307.73;;;13.76;100.00
43553;BME280;29153;42.696;23.218;2022-09-01T01:25:19;94307.11;;;13.67;100.00
43553;BME280;29153;42.696;23.218;2022-09-01T01:27:48;94304.57;;;13.74;100.00
43553;BME280;29153;42.696;23.218;2022-09-01T01:30:17;94309.36;;;13.74;100.00
43553;BME280;29153;42.696;23.218;2022-09-01T01:32:46;94307.72;;;13.64;100.00
43553;BME280;29153;42.696;23.218;2022-09-01T01:35:16;94308.54;;;13.62;100.00
43553;BME280;29153;42.696;23.218;2022-09-01T01:37:46;94308.06;;;13.60;100.00
43553;BME280;29153;42.696;23.218;2022-09-01T01:40:16;94312.38;;;13.56;100.00
43553;BME280;29153;42.696;23.218;2022-09-01T01:42:45;94315.64;;;13.53;100.00
43553;BME280;29153;42.696;23.218;2022-09-01T01:45:15;94321.81;;;13.51;100.00
43553;BME280;29153;42.696;23.218;2022-09-01T01:47:49;94313.92;;;13.60;100.00
43553;BME280;29153;42.696;23.218;2022-09-01T01:50:21;94325.68;;;13.56;100.00
43553;BME280;29153;42.696;23.218;2022-09-01T01:52:49;94329.34;;;13.33;100.00
43553;BME280;29153;42.696;23.218;2022-09-01T01:55:17;94336.13;;;13.39;100.00
43553;BME280;29153;42.696;23.218;2022-09-01T01:57:47;94336.03;;;13.44;100.00
43553;BME280;29153;42.696;23.218;2022-09-01T02:00:18;94345.70;;;13.54;100.00
43553;BME280;29153;42.696;23.218;2022-09-01T02:02:47;94345.70;;;13.54;100.00
43553;BME280;29153;42.696;23.218;2022-09-01T02:05:22;94353.20;;;13.38;100.00
43553;BME280;29153;42.696;23.218;2022-09-01T02:07:58;94353.20;;;13.38;100.00
43553;BME280;29153;42.696;23.218;2022-09-01T02:10:29;94350.45;;;13.43;100.00
43553;BME280;29153;42.696;23.218;2022-09-01T02:12:58;94349.92;;;13.28;100.00
43553;BME280;29153;42.696;23.218;2022-09-01T02:15:27;94357.45;;;13.23;100.00
43553;BME280;29153;42.696;23.218;2022-09-01T02:17:55;94358.69;;;13.28;100.00
43553;BME280;29153;42.696;23.218;2022-09-01T02:20:25;94357.75;;;13.35;100.00
43553;BME280;29153;42.696;23.218;2022-09-01T02:22:54;94355.95;;;13.33;100.00
43553;BME280;29153;42.696;23.218;2022-09-01T02:25:21;94351.98;;;13.17;100.00
43553;BME280;29153;42.696;23.218;2022-09-01T02:27:49;94349.53;;;13.20;100.00
43553;BME280;29153;42.696;23.218;2022-09-01T02:30:19;94356.38;;;13.24;100.00
43553;BME280;29153;42.696;23.218;2022-09-01T02:32:48;94350.52;;;13.25;100.00
43553;BME280;29153;42.696;23.218;2022-09-01T02:35:15;94343.41;;;13.20;100.00
43553;BME280;29153;42.696;23.218;2022-09-01T02:37:44;94337.50;;;13.23;100.00
43553;BME280;29153;42.696;23.218;2022-09-01T02:40:13;94335.63;;;13.23;100.00
43553;BME280;29153;42.696;23.218;2022-09-01T02:42:41;94330.63;;;13.22;100.00
43553;BME280;29153;42.696;23.218;2022-09-01T02:45:09;94322.73;;;13.17;100.00
43553;BME280;29153;42.696;23.218;2022-09-01T02:47:38;94327.70;;;13.21;100.00
43553;BME280;29153;42.696;23.218;2022-09-01T02:50:07;94330.66;;;13.19;100.00
43553;BME280;29153;42.696;23.218;2022-09-01T02:52:37;94325.44;;;13.28;100.00
43553;BME280;29153;42.696;23.218;2022-09-01T02:55:07;94318.61;;;13.38;100.00
43553;BME280;29153;42.696;23.218;2022-09-01T02:57:35;94318.61;;;13.38;100.00
43553;BME280;29153;42.696;23.218;2022-09-01T03:00:05;94325.63;;;13.32;100.00
43553;BME280;29153;42.696;23.218;2022-09-01T03:02:35;94331.19;;;13.19;100.00
43553;BME280;29153;42.696;23.218;2022-09-01T03:05:02;94331.50;;;13.17;100.00
43553;BME280;29153;42.696;23.218;2022-09-01T03:07:31;94326.47;;;13.16;100.00
43553;BME280;29153;42.696;23.218;2022-09-01T03:09:58;94331.39;;;13.22;100.00
43553;BME280;29153;42.696;23.218;2022-09-01T03:12:28;94334.64;;;13.19;100.00
43553;BME280;29153;42.696;23.218;2022-09-01T03:14:55;94336.70;;;13.06;100.00
43553;BME280;29153;42.696;23.218;2022-09-01T03:17:23;94337.27;;;12.90;100.00
43553;BME280;29153;42.696;23.218;2022-09-01T03:19:50;94339.44;;;12.88;100.00
43553;BME280;29153;42.696;23.218;2022-09-01T03:22:20;94341.17;;;12.95;100.00
43553;BME280;29153;42.696;23.218;2022-09-01T03:24:47;94337.52;;;12.91;100.00
43553;BME280;29153;42.696;23.218;2022-09-01T03:27:15;94340.20;;;12.88;100.00
43553;BME280;29153;42.696;23.218;2022-09-01T03:29:42;94334.47;;;12.97;100.00
43553;BME280;29153;42.696;23.218;2022-09-01T03:32:10;94336.79;;;13.01;100.00
43553;BME280;29153;42.696;23.218;2022-09-01T03:34:37;94339.05;;;12.94;100.00
43553;BME280;29153;42.696;23.218;2022-09-01T03:37:05;94342.78;;;12.93;100.00
43553;BME280;29153;42.696;23.218;2022-09-01T03:39:35;94335.14;;;12.89;100.00
43553;BME280;29153;42.696;23.218;2022-09-01T03:42:03;94338.84;;;12.91;100.00
43553;BME280;29153;42.696;23.218;2022-09-01T03:44:32;94336.39;;;12.94;100.00
43553;BME280;29153;42.696;23.218;2022-09-01T03:47:01;94333.03;;;13.05;100.00
43553;BME280;29153;42.696;23.218;2022-09-01T03:49:29;94337.66;;;12.97;100.00
43553;BME280;29153;42.696;23.218;2022-09-01T03:51:56;94341.20;;;12.92;100.00
43553;BME280;29153;42.696;23.218;2022-09-01T03:54:24;94337.41;;;12.82;100.00
43553;BME280;29153;42.696;23.218;2022-09-01T03:56:53;94337.86;;;12.87;100.00
43553;BME280;29153;42.696;23.218;2022-09-01T03:59:21;94340.93;;;12.77;100.00
43553;BME280;29153;42.696;23.218;2022-09-01T04:01:49;94341.53;;;12.88;100.00
43553;BME280;29153;42.696;23.218;2022-09-01T04:04:17;94344.57;;;12.98;100.00
43553;BME280;29153;42.696;23.218;2022-09-01T04:06:45;94352.87;;;13.12;100.00
43553;BME280;29153;42.696;23.218;2022-09-01T04:09:14;94349.55;;;13.02;100.00
43553;BME280;29153;42.696;23.218;2022-09-01T04:11:42;94348.92;;;13.07;100.00
43553;BME280;29153;42.696;23.218;2022-09-01T04:14:11;94344.09;;;13.09;100.00
43553;BME280;29153;42.696;23.218;2022-09-01T04:16:39;94340.81;;;13.17;100.00
43553;BME280;29153;42.696;23.218;2022-09-01T04:19:23;94338.94;;;13.32;100.00
43553;BME280;29153;42.696;23.218;2022-09-01T04:21:59;94339.13;;;13.35;100.00
43553;BME280;29153;42.696;23.218;2022-09-01T04:24:29;94332.98;;;13.37;100.00
43553;BME280;29153;42.696;23.218;2022-09-01T04:26:59;94292.52;;;13.10;100.00
43553;BME280;29153;42.696;23.218;2022-09-01T04:29:27;94338.58;;;13.52;100.00
43553;BME280;29153;42.696;23.218;2022-09-01T04:31:58;94337.34;;;13.60;100.00
43553;BME280;29153;42.696;23.218;2022-09-01T04:34:29;94334.45;;;13.71;100.00
43553;BME280;29153;42.696;23.218;2022-09-01T04:36:58;94330.37;;;13.76;100.00
43553;BME280;29153;42.696;23.218;2022-09-01T04:39:26;94328.63;;;13.82;100.00
43553;BME280;29153;42.696;23.218;2022-09-01T04:41:54;94326.40;;;13.87;100.00
43553;BME280;29153;42.696;23.218;2022-09-01T04:44:22;94328.48;;;13.90;100.00
43553;BME280;29153;42.696;23.218;2022-09-01T04:46:51;94329.15;;;13.95;100.00
43553;BME280;29153;42.696;23.218;2022-09-01T04:49:21;94327.78;;;13.98;100.00
43553;BME280;29153;42.696;23.218;2022-09-01T04:51:51;94329.23;;;14.04;100.00
43553;BME280;29153;42.696;23.218;2022-09-01T04:54:20;94327.08;;;14.17;100.00
43553;BME280;29153;42.696;23.218;2022-09-01T04:56:49;94318.88;;;14.27;100.00
43553;BME280;29153;42.696;23.218;2022-09-01T04:59:20;94325.42;;;14.32;100.00
43553;BME280;29153;42.696;23.218;2022-09-01T05:01:49;94331.87;;;14.42;100.00
43553;BME280;29153;42.696;23.218;2022-09-01T05:04:21;94325.82;;;14.73;100.00
43553;BME280;29153;42.696;23.218;2022-09-01T05:06:51;94325.82;;;14.73;100.00
43553;BME280;29153;42.696;23.218;2022-09-01T05:09:24;94319.53;;;14.80;100.00
43553;BME280;29153;42.696;23.218;2022-09-01T05:11:52;94282.02;;;14.65;100.00
43553;BME280;29153;42.696;23.218;2022-09-01T05:14:20;94317.76;;;14.86;100.00
43553;BME280;29153;42.696;23.218;2022-09-01T05:16:56;94323.73;;;15.03;100.00
43553;BME280;29153;42.696;23.218;2022-09-01T05:19:24;94323.00;;;15.11;100.00
43553;BME280;29153;42.696;23.218;2022-09-01T05:21:54;94321.81;;;15.45;100.00
43553;BME280;29153;42.696;23.218;2022-09-01T05:24:31;94324.25;;;15.56;100.00
43553;BME280;29153;42.696;23.218;2022-09-01T05:27:06;94325.84;;;15.57;100.00
43553;BME280;29153;42.696;23.218;2022-09-01T05:29:36;94323.27;;;15.71;100.00
43553;BME280;29153;42.696;23.218;2022-09-01T05:32:06;94323.27;;;15.71;100.00
43553;BME280;29153;42.696;23.218;2022-09-01T05:34:44;94324.96;;;15.78;100.00
43553;BME280;29153;42.696;23.218;2022-09-01T05:37:14;94315.94;;;15.85;100.00
43553;BME280;29153;42.696;23.218;2022-09-01T05:39:43;94315.94;;;15.85;100.00
43553;BME280;29153;42.696;23.218;2022-09-01T05:42:11;94323.11;;;16.05;100.00
43553;BME280;29153;42.696;23.218;2022-09-01T05:44:39;94308.41;;;16.05;100.00
43553;BME280;29153;42.696;23.218;2022-09-01T05:47:08;94329.66;;;16.18;100.00
43553;BME280;29153;42.696;23.218;2022-09-01T05:49:37;94329.34;;;16.11;100.00
43553;BME280;29153;42.696;23.218;2022-09-01T05:52:09;94324.09;;;16.52;100.00
43553;BME280;29153;42.696;23.218;2022-09-01T05:54:37;94324.09;;;16.52;100.00
43553;BME280;29153;42.696;23.218;2022-09-01T05:57:06;94321.78;;;16.59;100.00
43553;BME280;29153;42.696;23.218;2022-09-01T05:59:40;94321.78;;;16.59;100.00
43553;BME280;29153;42.696;23.218;2022-09-01T06:02:10;94318.47;;;16.62;98.92
43553;BME280;29153;42.696;23.218;2022-09-01T06:04:38;94318.47;;;16.62;98.92
43553;BME280;29153;42.696;23.218;2022-09-01T06:07:06;94321.44;;;16.69;99.62
43553;BME280;29153;42.696;23.218;2022-09-01T06:09:40;94321.27;;;16.82;99.24
43553;BME280;29153;42.696;23.218;2022-09-01T06:12:09;94321.42;;;16.86;100.00
43553;BME280;29153;42.696;23.218;2022-09-01T06:14:38;94321.76;;;17.16;98.47
43553;BME280;29153;42.696;23.218;2022-09-01T06:17:09;94315.02;;;17.10;96.17
43553;BME280;29153;42.696;23.218;2022-09-01T06:19:45;94320.42;;;17.16;97.28
43553;BME280;29153;42.696;23.218;2022-09-01T06:22:14;94325.30;;;17.23;98.06
43553;BME280;29153;42.696;23.218;2022-09-01T06:25:03;94323.53;;;17.36;96.73
43553;BME280;29153;42.696;23.218;2022-09-01T06:27:34;94317.17;;;17.72;96.83
43553;BME280;29153;42.696;23.218;2022-09-01T06:30:04;94319.48;;;18.11;94.22
43553;BME280;29153;42.696;23.218;2022-09-01T06:32:33;94315.53;;;17.88;93.17
43553;BME280;29153;42.696;23.218;2022-09-01T06:35:03;94316.86;;;17.73;94.36
43553;BME280;29153;42.696;23.218;2022-09-01T06:37:32;94314.41;;;18.04;93.64
43553;BME280;29153;42.696;23.218;2022-09-01T06:40:00;94314.09;;;18.05;91.78
43553;BME280;29153;42.696;23.218;2022-09-01T06:42:29;94318.02;;;17.79;92.62
43553;BME280;29153;42.696;23.218;2022-09-01T06:44:58;94311.86;;;17.93;94.64
43553;BME280;29153;42.696;23.218;2022-09-01T06:47:25;94310.99;;;18.09;93.76
43553;BME280;29153;42.696;23.218;2022-09-01T06:49:54;94314.17;;;18.17;92.03
43553;BME280;29153;42.696;23.218;2022-09-01T06:52:26;94311.69;;;18.33;91.55
43553;BME280;29153;42.696;23.218;2022-09-01T06:54:53;94311.06;;;18.22;92.06
43553;BME280;29153;42.696;23.218;2022-09-01T06:57:21;94314.11;;;18.26;92.23
43553;BME280;29153;42.696;23.218;2022-09-01T06:59:48;94314.30;;;18.21;91.62
43553;BME280;29153;42.696;23.218;2022-09-01T07:02:15;94311.38;;;18.20;92.68
43553;BME280;29153;42.696;23.218;2022-09-01T07:04:47;94311.06;;;18.22;92.43
43553;BME280;29153;42.696;23.218;2022-09-01T07:07:15;94313.92;;;18.31;93.83
43553;BME280;29153;42.696;23.218;2022-09-01T07:09:42;94315.09;;;18.42;91.37
43553;BME280;29153;42.696;23.218;2022-09-01T07:12:10;94305.72;;;18.28;93.16
43553;BME280;29153;42.696;23.218;2022-09-01T07:14:38;94302.91;;;18.24;92.96
43553;BME280;29153;42.696;23.218;2022-09-01T07:17:07;94315.87;;;18.43;92.20
43553;BME280;29153;42.696;23.218;2022-09-01T07:19:36;94312.07;;;18.58;90.00
43553;BME280;29153;42.696;23.218;2022-09-01T07:22:04;94314.45;;;18.66;89.58
43553;BME280;29153;42.696;23.218;2022-09-01T07:24:32;94314.36;;;18.69;89.39
43553;BME280;29153;42.696;23.218;2022-09-01T07:27:01;94308.13;;;18.77;91.37
43553;BME280;29153;42.696;23.218;2022-09-01T07:29:28;94312.67;;;18.91;89.19
43553;BME280;29153;42.696;23.218;2022-09-01T07:31:56;94314.37;;;19.01;89.14
43553;BME280;29153;42.696;23.218;2022-09-01T07:34:24;94313.96;;;19.12;87.89
43553;BME280;29153;42.696;23.218;2022-09-01T07:36:52;94309.28;;;19.27;86.54
43553;BME280;29153;42.696;23.218;2022-09-01T07:39:22;94311.47;;;19.51;85.45
43553;BME280;29153;42.696;23.218;2022-09-01T07:41:49;94313.39;;;19.81;83.41
43553;BME280;29153;42.696;23.218;2022-09-01T07:44:17;94314.06;;;20.03;80.58
43553;BME280;29153;42.696;23.218;2022-09-01T07:46:44;94316.09;;;20.30;79.81
43553;BME280;29153;42.696;23.218;2022-09-01T07:49:14;94310.45;;;20.47;79.03
43553;BME280;29153;42.696;23.218;2022-09-01T07:51:44;94312.90;;;20.86;80.85
43553;BME280;29153;42.696;23.218;2022-09-01T07:54:12;94324.94;;;21.32;77.62
43553;BME280;29153;42.696;23.218;2022-09-01T07:56:39;94319.14;;;21.61;78.65
43553;BME280;29153;42.696;23.218;2022-09-01T07:59:07;94321.05;;;22.08;75.07
43553;BME280;29153;42.696;23.218;2022-09-01T08:01:34;94313.66;;;22.30;73.62
43553;BME280;29153;42.696;23.218;2022-09-01T08:04:02;94316.28;;;22.61;73.36
43553;BME280;29153;42.696;23.218;2022-09-01T08:06:29;94313.98;;;22.89;70.69
43553;BME280;29153;42.696;23.218;2022-09-01T08:08:58;94312.61;;;23.08;71.06
43553;BME280;29153;42.696;23.218;2022-09-01T08:11:28;94321.52;;;23.41;70.94
43553;BME280;29153;42.696;23.218;2022-09-01T08:13:57;94309.23;;;23.34;69.75
43553;BME280;29153;42.696;23.218;2022-09-01T08:16:27;94249.67;;;23.17;68.24
43553;BME280;29153;42.696;23.218;2022-09-01T08:18:55;94316.12;;;23.83;67.79
43553;BME280;29153;42.696;23.218;2022-09-01T08:21:24;94311.11;;;23.85;68.01
43553;BME280;29153;42.696;23.218;2022-09-01T08:23:53;94308.76;;;23.70;71.84
43553;BME280;29153;42.696;23.218;2022-09-01T08:26:24;94309.16;;;23.95;66.98
43553;BME280;29153;42.696;23.218;2022-09-01T08:28:53;94306.80;;;24.16;65.51
43553;BME280;29153;42.696;23.218;2022-09-01T08:31:23;94305.72;;;24.21;65.11
43553;BME280;29153;42.696;23.218;2022-09-01T08:33:52;94302.74;;;24.42;68.39
43553;BME280;29153;42.696;23.218;2022-09-01T08:36:22;94305.97;;;24.52;65.14
43553;BME280;29153;42.696;23.218;2022-09-01T08:38:50;94300.46;;;24.61;64.81
43553;BME280;29153;42.696;23.218;2022-09-01T08:46:38;94288.63;;;25.03;65.55
43553;BME280;29153;42.696;23.218;2022-09-01T08:49:19;94292.34;;;25.08;60.92
43553;BME280;29153;42.696;23.218;2022-09-01T08:51:47;94280.00;;;25.10;62.64
43553;BME280;29153;42.696;23.218;2022-09-01T08:57:29;94276.45;;;25.23;60.59
43553;BME280;29153;42.696;23.218;2022-09-01T08:59:56;94273.67;;;25.16;57.86
43553;BME280;29153;42.696;23.218;2022-09-01T09:10:42;94267.67;;;25.53;57.30
43553;BME280;29153;42.696;23.218;2022-09-01T09:13:19;94269.03;;;25.53;57.00
43553;BME280;29153;42.696;23.218;2022-09-01T09:15:56;94238.31;;;25.25;58.88
43553;BME280;29153;42.696;23.218;2022-09-01T09:18:57;94262.64;;;25.55;56.66
43553;BME280;29153;42.696;23.218;2022-09-01T09:21:13;94258.08;;;25.63;64.21
43553;BME280;29153;42.696;23.218;2022-09-01T09:23:42;94256.17;;;25.67;59.02
43553;BME280;29153;42.696;23.218;2022-09-01T09:26:10;94255.39;;;25.66;56.39
43553;BME280;29153;42.696;23.218;2022-09-01T09:28:38;94250.38;;;25.72;56.68
43553;BME280;29153;42.696;23.218;2022-09-01T09:31:30;94241.84;;;25.70;63.58
43553;BME280;29153;42.696;23.218;2022-09-01T09:33:58;94242.46;;;25.76;62.85
43553;BME280;29153;42.696;23.218;2022-09-01T09:36:29;94240.63;;;25.88;59.48
43553;BME280;29153;42.696;23.218;2022-09-01T09:39:15;94241.80;;;25.90;59.11
43553;BME280;29153;42.696;23.218;2022-09-01T09:41:42;94237.97;;;25.98;61.90
43553;BME280;29153;42.696;23.218;2022-09-01T09:44:24;94237.85;;;26.08;56.50
43553;BME280;29153;42.696;23.218;2022-09-01T09:46:51;94231.60;;;26.00;54.11
43553;BME280;29153;42.696;23.218;2022-09-01T09:49:30;94236.78;;;25.92;55.65
43553;BME280;29153;42.696;23.218;2022-09-01T09:57:27;94231.20;;;26.25;53.06
43553;BME280;29153;42.696;23.218;2022-09-01T10:00:01;94223.73;;;26.43;53.87
43553;BME280;29153;42.696;23.218;2022-09-01T10:02:42;94225.09;;;26.43;53.98
43553;BME280;29153;42.696;23.218;2022-09-01T10:08:00;94214.99;;;26.40;50.42
43553;BME280;29153;42.696;23.218;2022-09-01T10:10:30;94216.59;;;26.55;51.12
43553;BME280;29153;42.696;23.218;2022-09-01T10:12:59;94217.75;;;26.54;54.87
43553;BME280;29153;42.696;23.218;2022-09-01T10:15:32;94218.11;;;26.49;50.14
43553;BME280;29153;42.696;23.218;2022-09-01T10:18:05;94212.72;;;26.52;55.69
43553;BME280;29153;42.696;23.218;2022-09-01T10:20:34;94213.12;;;26.61;52.95
43553;BME280;29153;42.696;23.218;2022-09-01T10:23:03;94216.05;;;26.66;50.06
43553;BME280;29153;42.696;23.218;2022-09-01T10:25:33;94208.86;;;26.57;49.74
43553;BME280;29153;42.696;23.218;2022-09-01T10:28:10;94203.24;;;26.66;49.18
43553;BME280;29153;42.696;23.218;2022-09-01T10:30:39;94200.00;;;26.81;51.23
43553;BME280;29153;42.696;23.218;2022-09-01T10:33:09;94196.38;;;26.94;56.09
43553;BME280;29153;42.696;23.218;2022-09-01T10:35:39;94184.85;;;26.80;49.56
43553;BME280;29153;42.696;23.218;2022-09-01T10:38:09;94195.23;;;27.09;50.53
43553;BME280;29153;42.696;23.218;2022-09-01T10:40:45;94191.77;;;27.15;48.07
43553;BME280;29153;42.696;23.218;2022-09-01T10:43:38;94193.30;;;27.09;48.44
43553;BME280;29153;42.696;23.218;2022-09-01T10:46:40;94188.44;;;27.09;52.32
43553;BME280;29153;42.696;23.218;2022-09-01T10:48:47;94184.39;;;27.23;52.10
43553;BME280;29153;42.696;23.218;2022-09-01T10:53:49;94185.17;;;27.20;52.31
43553;BME280;29153;42.696;23.218;2022-09-01T10:56:43;94179.33;;;27.11;50.27
43553;BME280;29153;42.696;23.218;2022-09-01T11:05:08;94176.63;;;27.25;48.16
43553;BME280;29153;42.696;23.218;2022-09-01T11:07:00;94168.84;;;27.31;47.50
43553;BME280;29153;42.696;23.218;2022-09-01T11:09:44;94172.92;;;27.31;52.65
43553;BME280;29153;42.696;23.218;2022-09-01T11:15:01;94168.28;;;27.42;48.67
43553;BME280;29153;42.696;23.218;2022-09-01T11:20:32;94165.95;;;27.76;47.55
43553;BME280;29153;42.696;23.218;2022-09-01T11:23:28;94166.73;;;27.80;47.85
43553;BME280;29153;42.696;23.218;2022-09-01T11:26:01;94160.70;;;27.70;46.92
43553;BME280;29153;42.696;23.218;2022-09-01T11:28:35;94155.06;;;27.79;44.11
43553;BME280;29153;42.696;23.218;2022-09-01T11:34:14;94143.36;;;28.11;45.31
43553;BME280;29153;42.696;23.218;2022-09-01T11:36:56;94132.80;;;28.20;44.70
43553;BME280;29153;42.696;23.218;2022-09-01T11:39:37;94125.83;;;28.12;43.55
43553;BME280;29153;42.696;23.218;2022-09-01T11:42:35;94123.46;;;28.21;44.13
43553;BME280;29153;42.696;23.218;2022-09-01T11:47:41;94115.09;;;28.20;45.84
43553;BME280;29153;42.696;23.218;2022-09-01T11:50:22;94111.61;;;28.08;42.78
43553;BME280;29153;42.696;23.218;2022-09-01T11:53:14;94107.79;;;27.88;42.41
43553;BME280;29153;42.696;23.218;2022-09-01T11:55:44;94109.95;;;27.64;43.58
43553;BME280;29153;42.696;23.218;2022-09-01T12:01:12;94101.77;;;27.85;46.43
43553;BME280;29153;42.696;23.218;2022-09-01T12:03:40;94097.91;;;27.72;43.77
43553;BME280;29153;42.696;23.218;2022-09-01T12:06:10;94095.58;;;27.60;45.00
43553;BME280;29153;42.696;23.218;2022-09-01T12:08:41;94096.94;;;27.60;48.31
43553;BME280;29153;42.696;23.218;2022-09-01T12:11:20;94099.09;;;27.68;48.29
43553;BME280;29153;42.696;23.218;2022-09-01T12:13:59;94096.73;;;27.70;47.91
43553;BME280;29153;42.696;23.218;2022-09-01T12:16:29;94093.63;;;27.64;48.55
43553;BME280;29153;42.696;23.218;2022-09-01T12:18:58;94090.73;;;27.63;49.54
43553;BME280;29153;42.696;23.218;2022-09-01T12:21:34;94095.40;;;27.63;50.35
43553;BME280;29153;42.696;23.218;2022-09-01T12:24:17;94090.73;;;27.63;47.53
43553;BME280;29153;42.696;23.218;2022-09-01T12:26:49;94090.17;;;27.49;51.31
43553;BME280;29153;42.696;23.218;2022-09-01T12:29:17;94092.50;;;27.54;48.34
43553;BME280;29153;42.696;23.218;2022-09-01T12:31:48;94082.17;;;27.43;48.16
43553;BME280;29153;42.696;23.218;2022-09-01T12:39:44;94086.65;;;27.56;47.37
43553;BME280;29153;42.696;23.218;2022-09-01T12:45:00;94086.45;;;27.44;49.08
43553;BME280;29153;42.696;23.218;2022-09-01T12:52:49;94092.47;;;27.65;48.50
43553;BME280;29153;42.696;23.218;2022-09-01T12:55:25;94084.47;;;27.73;47.97
43553;BME280;29153;42.696;23.218;2022-09-01T12:58:02;94087.78;;;27.73;45.84
43553;BME280;29153;42.696;23.218;2022-09-01T13:00:31;94089.73;;;27.69;48.42
43553;BME280;29153;42.696;23.218;2022-09-01T13:03:06;94081.75;;;27.73;49.33
43553;BME280;29153;42.696;23.218;2022-09-01T13:05:35;94084.48;;;27.77;52.38
43553;BME280;29153;42.696;23.218;2022-09-01T13:10:46;94070.50;;;27.71;49.73
43553;BME280;29153;42.696;23.218;2022-09-01T13:13:10;94064.45;;;27.75;52.93
43553;BME280;29153;42.696;23.218;2022-09-01T13:15:41;94064.23;;;27.81;52.07
43553;BME280;29153;42.696;23.218;2022-09-01T13:18:08;94059.58;;;27.78;49.13
43553;BME280;29153;42.696;23.218;2022-09-01T13:20:36;94055.16;;;27.62;51.03
43553;BME280;29153;42.696;23.218;2022-09-01T13:23:04;94054.18;;;27.43;52.58
43553;BME280;29153;42.696;23.218;2022-09-01T13:25:32;94057.48;;;27.60;51.86
43553;BME280;29153;42.696;23.218;2022-09-01T13:27:58;94057.28;;;27.66;49.80
43553;BME280;29153;42.696;23.218;2022-09-01T13:30:29;94061.59;;;27.53;51.50
43553;BME280;29153;42.696;23.218;2022-09-01T13:32:57;94057.50;;;27.35;50.99
43553;BME280;29153;42.696;23.218;2022-09-01T13:35:24;94060.62;;;27.34;51.89
43553;BME280;29153;42.696;23.218;2022-09-01T13:37:52;94057.51;;;27.53;51.94
43553;BME280;29153;42.696;23.218;2022-09-01T13:40:21;94054.59;;;27.48;52.09
43553;BME280;29153;42.696;23.218;2022-09-01T13:42:54;94057.89;;;27.41;54.01
43553;BME280;29153;42.696;23.218;2022-09-01T13:45:22;94064.11;;;27.52;52.31
43553;BME280;29153;42.696;23.218;2022-09-01T13:47:51;94069.56;;;27.48;50.97
43553;BME280;29153;42.696;23.218;2022-09-01T13:50:21;94066.83;;;27.45;51.57
43553;BME280;29153;42.696;23.218;2022-09-01T13:52:53;94064.52;;;27.15;52.00
43553;BME280;29153;42.696;23.218;2022-09-01T13:55:28;94062.39;;;27.07;52.92
43553;BME280;29153;42.696;23.218;2022-09-01T13:57:56;94058.30;;;26.93;52.32
43553;BME280;29153;42.696;23.218;2022-09-01T14:00:31;94056.37;;;26.90;57.23
43553;BME280;29153;42.696;23.218;2022-09-01T14:02:57;94052.67;;;26.92;53.46
43553;BME280;29153;42.696;23.218;2022-09-01T14:05:27;94053.44;;;26.96;54.27
43553;BME280;29153;42.696;23.218;2022-09-01T14:07:55;94058.67;;;26.74;53.62